Time;durP1;ratioP1;P1;durP2;ratioP2;P2;SDS_P1;SDS_P2;PMS_P1;PMS_P2;Temp;Humidity;BMP_temperature;BMP_pressure;BME280_temperature;BME280_humidity;BME280_pressure;Samples;Min_cycle;Max_cycle;Signal;HPM_P1;HPM_P2
2023/05/06 00:00:11;;;;;;;23.60;19.83;;;;;;;13.22;100.00;100854.81;4990154;28;20219;-67
2023/05/06 00:02:37;;;;;;;21.83;19.27;;;;;;;13.22;100.00;100852.13;4999734;28;20207;-69
2023/05/06 00:05:06;;;;;;;22.43;19.97;;;;;;;13.22;100.00;100854.81;4993095;28;20219;-69
2023/05/06 00:07:33;;;;;;;21.40;18.97;;;;;;;13.22;100.00;100848.59;4996335;28;20226;-69
2023/05/06 00:09:59;;;;;;;23.57;19.97;;;;;;;13.22;100.00;100843.25;4994809;28;20212;-70
2023/05/06 00:12:26;;;;;;;25.23;19.77;;;;;;;13.23;100.00;100847.63;4999769;28;20230;-69
2023/05/06 00:14:52;;;;;;;23.87;19.33;;;;;;;13.23;100.00;100845.81;4995098;28;20210;-69
2023/05/06 00:17:18;;;;;;;21.80;18.77;;;;;;;13.22;100.00;100846.78;4992919;28;20708;-68
2023/05/06 00:19:45;;;;;;;22.27;19.47;;;;;;;13.23;100.00;100844.97;4993774;28;20227;-68
2023/05/06 00:22:13;;;;;;;23.20;18.87;;;;;;;13.23;100.00;100842.28;4992894;28;20218;-67
2023/05/06 00:24:39;;;;;;;22.30;18.13;;;;;;;13.23;100.00;100851.16;4990824;28;20786;-68
2023/05/06 00:27:06;;;;;;;21.73;19.37;;;;;;;13.24;100.00;100849.34;4990529;28;20227;-69
2023/05/06 00:29:32;;;;;;;21.50;18.37;;;;;;;13.24;100.00;100838.66;4993840;28;20214;-69
2023/05/06 00:31:58;;;;;;;21.00;18.23;;;;;;;13.23;100.00;100840.47;4995227;28;20207;-68
2023/05/06 00:34:25;;;;;;;18.77;16.77;;;;;;;13.23;100.00;100839.63;4990494;28;20215;-68
2023/05/06 00:36:51;;;;;;;21.47;18.20;;;;;;;13.21;100.00;100853.09;4989328;28;20231;-70
2023/05/06 00:39:20;;;;;;;20.10;18.10;;;;;;;13.19;100.00;100845.16;4988449;28;20902;-69
2023/05/06 00:41:46;;;;;;;21.57;17.13;;;;;;;13.19;100.00;100844.31;4996551;28;20203;-68
2023/05/06 00:44:12;;;;;;;22.70;17.57;;;;;;;13.17;100.00;100846.25;4993235;28;22296;-67
2023/05/06 00:46:39;;;;;;;18.73;16.73;;;;;;;13.16;100.00;100844.53;4994569;28;20249;-69
2023/05/06 00:49:06;;;;;;;16.90;15.20;;;;;;;13.14;100.00;100846.41;4994362;28;20208;-70
2023/05/06 00:51:32;;;;;;;17.27;15.50;;;;;;;13.12;100.00;100848.34;4992036;28;20247;-70
2023/05/06 00:54:00;;;;;;;16.33;14.50;;;;;;;13.10;100.00;100864.50;4989428;28;20717;-69
2023/05/06 00:56:28;;;;;;;15.90;14.33;;;;;;;13.08;100.00;100857.53;4995192;28;20243;-69
2023/05/06 00:58:55;;;;;;;15.80;14.30;;;;;;;13.05;100.00;100861.31;4989925;28;20215;-69
2023/05/06 01:01:23;;;;;;;16.27;14.57;;;;;;;13.03;100.00;100863.22;4996174;28;20211;-69
2023/05/06 01:03:50;;;;;;;16.87;15.03;;;;;;;13.02;100.00;100861.53;4991194;28;20304;-70
2023/05/06 01:06:24;;;;;;;17.13;15.33;;;;;;;13.01;100.00;100858.94;4991675;28;20228;-69
2023/05/06 01:08:57;;;;;;;16.83;15.17;;;;;;;13.00;100.00;100866.13;4989948;28;20211;-69
2023/05/06 01:11:34;;;;;;;15.93;14.33;;;;;;;13.00;100.00;100858.09;4994490;28;20207;-69
2023/05/06 01:14:07;;;;;;;17.77;14.93;;;;;;;13.00;100.00;100860.78;4986570;28;20207;-70
2023/05/06 01:16:38;;;;;;;16.63;14.93;;;;;;;13.01;100.00;100856.28;4990726;28;20231;-70
2023/05/06 01:19:08;;;;;;;15.80;14.20;;;;;;;13.01;100.00;100862.47;4993834;28;20215;-69
2023/05/06 01:21:36;;;;;;;16.90;15.17;;;;;;;13.02;100.00;100863.34;4987595;28;20208;-70
2023/05/06 01:24:05;;;;;;;17.20;15.07;;;;;;;13.03;100.00;100865.91;4989083;28;20214;-70
2023/05/06 01:26:31;;;;;;;16.93;15.13;;;;;;;13.03;100.00;100867.72;4996964;28;20226;-69
2023/05/06 01:28:59;;;;;;;16.90;15.07;;;;;;;13.02;100.00;100866.00;4989474;28;20220;-69
2023/05/06 01:31:27;;;;;;;20.40;16.30;;;;;;;13.01;100.00;100866.97;4988987;28;20261;-68
2023/05/06 01:34:06;;;;;;;17.97;14.93;;;;;;;12.99;100.00;100864.41;4987342;28;20215;-69
2023/05/06 01:36:41;;;;;;;17.43;15.50;;;;;;;12.98;100.00;100868.03;4986483;28;20475;-70
2023/05/06 01:39:17;;;;;;;18.50;15.37;;;;;;;12.98;100.00;100872.53;4989722;28;20218;-70
2023/05/06 01:41:45;;;;;;;17.67;15.47;;;;;;;12.96;100.00;100869.09;4984819;28;20215;-69
2023/05/06 01:44:13;;;;;;;17.67;14.70;;;;;;;12.95;100.00;100873.59;4997115;28;20230;-69
2023/05/06 01:46:39;;;;;;;18.83;16.47;;;;;;;12.95;100.00;100878.94;4996176;28;20265;-70
2023/05/06 01:49:10;;;;;;;19.53;17.43;;;;;;;12.95;100.00;100873.59;4992814;28;20699;-70
2023/05/06 01:51:37;;;;;;;18.90;15.40;;;;;;;12.97;100.00;100871.66;4985743;28;20222;-70
2023/05/06 01:54:04;;;;;;;16.27;14.43;;;;;;;12.97;100.00;100865.47;4992813;28;20215;-70
2023/05/06 01:56:32;;;;;;;16.83;14.60;;;;;;;12.97;100.00;100869.00;4992766;28;20235;-69
2023/05/06 01:58:58;;;;;;;17.47;15.67;;;;;;;12.96;100.00;100875.31;4996102;28;20211;-69
2023/05/06 02:01:25;;;;;;;18.03;15.40;;;;;;;12.98;100.00;100872.53;4988496;28;20212;-71
2023/05/06 02:03:52;;;;;;;17.90;15.90;;;;;;;12.99;100.00;100869.75;4990791;28;20694;-69
2023/05/06 02:06:18;;;;;;;19.60;15.90;;;;;;;13.01;100.00;100866.97;4990716;28;21492;-70
2023/05/06 02:08:45;;;;;;;19.10;15.47;;;;;;;13.01;100.00;100861.63;4986569;28;20207;-68
2023/05/06 02:11:11;;;;;;;16.60;14.63;;;;;;;13.02;100.00;100864.19;4987707;28;20669;-69
2023/05/06 02:13:39;;;;;;;19.80;16.97;;;;;;;13.03;100.00;100865.91;4994061;28;20215;-69
2023/05/06 02:16:05;;;;;;;18.33;15.87;;;;;;;13.04;100.00;100862.28;4993644;28;20230;-70
2023/05/06 02:18:32;;;;;;;17.33;14.33;;;;;;;13.06;100.00;100864.84;4993594;28;20650;-69
2023/05/06 02:20:58;;;;;;;17.37;15.33;;;;;;;13.05;100.00;100869.34;4993915;28;20211;-70
2023/05/06 02:23:25;;;;;;;16.93;15.13;;;;;;;13.04;100.00;100869.44;4992062;28;20211;-69
2023/05/06 02:25:52;;;;;;;20.83;17.37;;;;;;;13.01;100.00;100866.97;4993720;28;20239;-70
2023/05/06 02:28:19;;;;;;;21.33;16.57;;;;;;;12.99;100.00;100864.41;4985989;28;20207;-68
2023/05/06 02:30:46;;;;;;;18.13;15.97;;;;;;;12.98;100.00;100864.50;4994541;28;20668;-69
2023/05/06 02:33:13;;;;;;;18.03;16.13;;;;;;;12.95;100.00;100862.91;4991395;28;20210;-69
2023/05/06 02:35:39;;;;;;;17.73;15.90;;;;;;;12.93;100.00;100867.50;4984686;28;20556;-69
2023/05/06 02:38:06;;;;;;;17.43;15.43;;;;;;;12.89;100.00;100852.66;4987909;28;20301;-69
2023/05/06 02:40:32;;;;;;;17.63;15.00;;;;;;;12.87;100.00;100865.28;4992442;28;20214;-71
2023/05/06 02:42:59;;;;;;;18.03;15.47;;;;;;;12.83;100.00;100861.09;4987830;28;20211;-69
2023/05/06 02:45:25;;;;;;;18.97;15.10;;;;;;;12.79;100.00;100864.94;4991971;28;20633;-69
2023/05/06 02:47:53;;;;;;;16.30;14.47;;;;;;;12.74;100.00;100862.56;4992473;28;20223;-69
2023/05/06 02:50:20;;;;;;;14.70;13.07;;;;;;;12.69;100.00;100863.88;4992763;28;20235;-71
2023/05/06 02:52:46;;;;;;;19.40;15.37;;;;;;;12.63;100.00;100850.91;4983573;28;20222;-67
2023/05/06 02:55:12;;;;;;;15.33;13.73;;;;;;;12.56;100.00;100858.47;4991109;28;20212;-69
2023/05/06 02:57:39;;;;;;;15.90;14.20;;;;;;;12.49;100.00;100855.41;4993527;28;20638;-71
2023/05/06 03:00:09;;;;;;;13.33;11.90;;;;;;;12.42;100.00;100864.78;4992413;28;20728;-72
2023/05/06 03:02:36;;;;;;;15.03;12.30;;;;;;;12.36;100.00;100867.03;4990656;28;20238;-70
2023/05/06 03:05:05;;;;;;;13.47;11.97;;;;;;;12.31;100.00;100859.31;4994040;28;20233;-69
2023/05/06 03:07:31;;;;;;;12.67;10.97;;;;;;;12.25;100.00;100865.03;4989500;28;20217;-70
2023/05/06 03:09:58;;;;;;;11.00;9.83;;;;;;;12.20;100.00;100858.28;4990443;28;20214;-69
2023/05/06 03:12:24;;;;;;;11.33;10.10;;;;;;;12.14;100.00;100862.25;4984740;28;20219;-70
2023/05/06 03:14:50;;;;;;;10.20;9.07;;;;;;;12.08;100.00;100858.16;4992633;28;20207;-69
2023/05/06 03:17:17;;;;;;;9.40;8.33;;;;;;;12.02;100.00;100853.22;4993479;28;20231;-70
2023/05/06 03:19:43;;;;;;;8.83;7.93;;;;;;;11.98;100.00;100854.41;4986561;28;20683;-69
2023/05/06 03:22:11;;;;;;;8.33;7.30;;;;;;;11.94;100.00;100852.03;4988576;28;20697;-69
2023/05/06 03:24:38;;;;;;;9.00;8.10;;;;;;;11.90;100.00;100856.72;4991615;28;20674;-69
2023/05/06 03:27:04;;;;;;;8.17;7.37;;;;;;;11.90;100.00;100861.19;4990470;28;20237;-69
2023/05/06 03:29:30;;;;;;;7.23;6.53;;;;;;;11.87;100.00;100864.06;4990829;28;20206;-70
2023/05/06 03:31:57;;;;;;;8.20;7.40;;;;;;;11.84;100.00;100859.75;4993710;28;20488;-69
2023/05/06 03:34:23;;;;;;;7.70;6.47;;;;;;;11.81;100.00;100860.84;4988025;28;20199;-68
2023/05/06 03:36:50;;;;;;;7.53;6.73;;;;;;;11.80;100.00;100867.13;4988118;28;20737;-69
2023/05/06 03:39:17;;;;;;;6.57;5.97;;;;;;;11.78;100.00;100863.72;4988937;28;20211;-70
2023/05/06 03:41:44;;;;;;;7.63;6.47;;;;;;;11.76;100.00;100870.09;4991927;28;20229;-70
2023/05/06 03:44:10;;;;;;;6.87;6.27;;;;;;;11.74;100.00;100866.63;4985315;28;20605;-68
2023/05/06 03:46:38;;;;;;;6.63;6.00;;;;;;;11.70;100.00;100865.97;4990320;28;20254;-69
2023/05/06 03:49:05;;;;;;;7.27;6.50;;;;;;;11.69;100.00;100868.72;4988571;28;20587;-69
2023/05/06 03:51:31;;;;;;;8.70;7.03;;;;;;;11.68;100.00;100865.22;4988048;28;20217;-69
2023/05/06 03:53:58;;;;;;;7.00;6.20;;;;;;;11.67;100.00;100871.50;4989182;28;20220;-69
2023/05/06 03:56:26;;;;;;;7.00;6.30;;;;;;;11.67;100.00;100871.50;4991185;28;20239;-66
2023/05/06 03:58:52;;;;;;;7.23;6.53;;;;;;;11.67;100.00;100866.16;4990190;28;20226;-69
2023/05/06 04:01:19;;;;;;;7.77;6.70;;;;;;;11.66;100.00;100869.78;4987568;28;20215;-68
2023/05/06 04:03:46;;;;;;;7.83;6.07;;;;;;;11.60;100.00;100875.53;4986856;28;20241;-67
2023/05/06 04:06:12;;;;;;;7.20;6.50;;;;;;;11.54;100.00;100875.06;4985203;28;20375;-69
2023/05/06 04:08:39;;;;;;;8.17;6.47;;;;;;;11.47;100.00;100882.56;4988326;28;20206;-69
2023/05/06 04:11:06;;;;;;;7.60;6.90;;;;;;;11.41;100.00;100878.50;4991445;28;20225;-70
2023/05/06 04:13:35;;;;;;;8.17;6.43;;;;;;;11.39;100.00;100883.09;4987380;28;20205;-69
2023/05/06 04:16:02;;;;;;;7.50;6.80;;;;;;;11.37;100.00;100879.66;4988384;28;20224;-69
2023/05/06 04:18:29;;;;;;;9.37;7.30;;;;;;;11.36;100.00;100877.06;4992055;28;20226;-69
2023/05/06 04:20:56;;;;;;;7.70;6.90;;;;;;;11.36;100.00;100880.59;4994763;28;20714;-69
2023/05/06 04:23:22;;;;;;;7.83;7.00;;;;;;;11.33;100.00;100886.13;4988855;28;20671;-70
2023/05/06 04:25:49;;;;;;;7.70;6.87;;;;;;;11.29;100.00;100891.72;4994885;28;20203;-70
2023/05/06 04:28:16;;;;;;;10.13;7.70;;;;;;;11.24;100.00;100893.84;4992064;28;20213;-70
2023/05/06 04:30:45;;;;;;;8.67;6.90;;;;;;;11.20;100.00;100898.50;4995224;28;20220;-69
2023/05/06 04:33:12;;;;;;;8.93;7.03;;;;;;;11.17;100.00;100897.84;4990301;28;20210;-69
2023/05/06 04:35:39;;;;;;;7.97;7.13;;;;;;;11.13;100.00;100895.34;4993244;28;20205;-70
2023/05/06 04:38:05;;;;;;;10.90;9.67;;;;;;;11.10;100.00;100902.72;4991611;28;20730;-69
2023/05/06 04:40:35;;;;;;;12.87;10.50;;;;;;;11.12;100.00;100906.13;4995055;28;20237;-69
2023/05/06 04:43:01;;;;;;;15.97;12.40;;;;;;;11.14;100.00;100905.06;4992320;28;20215;-70
2023/05/06 04:45:28;;;;;;;15.53;12.97;;;;;;;11.19;100.00;100906.59;4992372;28;20254;-67
2023/05/06 04:47:56;;;;;;;16.87;12.90;;;;;;;11.24;100.00;100907.19;4988293;28;20218;-69
2023/05/06 04:50:22;;;;;;;16.30;12.93;;;;;;;11.27;100.00;100912.34;4991681;28;20213;-71
2023/05/06 04:52:49;;;;;;;14.27;12.33;;;;;;;11.30;100.00;100914.78;4994749;28;20205;-69
2023/05/06 04:55:16;;;;;;;13.83;11.40;;;;;;;11.33;100.00;100910.13;4992870;28;20226;-68
2023/05/06 04:57:42;;;;;;;16.40;12.70;;;;;;;11.35;100.00;100912.69;4993586;28;20704;-68
2023/05/06 05:00:10;;;;;;;13.37;11.07;;;;;;;11.35;100.00;100912.69;4990440;28;20211;-68
2023/05/06 05:02:36;;;;;;;12.57;11.27;;;;;;;11.36;100.00;100911.75;4987883;28;20229;-68
2023/05/06 05:05:04;;;;;;;14.00;11.20;;;;;;;11.36;100.00;100912.59;4993494;28;20214;-69
2023/05/06 05:07:31;;;;;;;13.77;9.97;;;;;;;11.37;100.00;100910.78;4992311;28;20231;-69
2023/05/06 05:09:57;;;;;;;11.83;10.17;;;;;;;11.36;100.00;100911.75;4991014;28;20220;-68
2023/05/06 05:12:24;;;;;;;12.57;9.67;;;;;;;11.37;100.00;100913.47;4990827;28;20215;-69
2023/05/06 05:14:50;;;;;;;11.13;9.60;;;;;;;11.38;100.00;100918.69;4991822;28;20283;-68
2023/05/06 05:17:16;;;;;;;12.10;8.90;;;;;;;11.39;100.00;100911.56;4994348;28;20521;-65
2023/05/06 05:19:43;;;;;;;10.83;8.97;;;;;;;11.40;100.00;100915.94;4989162;28;20246;-69
2023/05/06 05:22:11;;;;;;;11.63;9.40;;;;;;;11.40;100.00;100915.94;4991842;28;20226;-70
2023/05/06 05:24:37;;;;;;;10.43;9.33;;;;;;;11.40;100.00;100913.28;4990534;28;20212;-69
2023/05/06 05:27:04;;;;;;;11.77;9.07;;;;;;;11.41;100.00;100913.19;4991410;28;20240;-69
2023/05/06 05:29:30;;;;;;;11.00;8.80;;;;;;;11.43;100.00;100918.41;4986779;28;20213;-68
2023/05/06 05:31:56;;;;;;;11.73;9.83;;;;;;;11.44;100.00;100918.31;4992590;28;20211;-69
2023/05/06 05:34:23;;;;;;;13.00;10.27;;;;;;;11.49;100.00;100920.69;4990789;28;20205;-69
2023/05/06 05:36:49;;;;;;;13.50;10.23;;;;;;;11.53;100.00;100919.53;4985836;28;20814;-66
2023/05/06 05:39:17;;;;;;;12.90;10.20;;;;;;;11.60;100.00;100928.88;4987481;28;20725;-69
2023/05/06 05:41:43;;;;;;;12.80;9.97;;;;;;;11.69;100.00;100930.97;4990336;28;20704;-69
2023/05/06 05:44:10;;;;;;;13.43;10.43;;;;;;;11.75;100.00;100941.25;4989364;28;20205;-68
2023/05/06 05:46:36;;;;;;;12.67;10.20;;;;;;;11.80;100.00;100944.53;4991298;28;20303;-69
2023/05/06 05:49:03;;;;;;;14.40;11.57;;;;;;;11.85;100.00;100944.22;4986150;28;20202;-69
2023/05/06 05:51:29;;;;;;;14.23;10.27;;;;;;;11.89;100.00;100950.22;4983156;28;20297;-69
2023/05/06 05:53:56;;;;;;;13.17;11.50;;;;;;;11.90;100.00;100946.59;4981772;28;20506;-67
2023/05/06 05:56:24;;;;;;;12.30;10.97;;;;;;;11.94;100.00;100948.13;4987670;28;20232;-68
2023/05/06 05:58:50;;;;;;;14.80;11.40;;;;;;;11.99;100.00;100946.00;4984606;28;20783;-69
2023/05/06 06:01:17;;;;;;;15.30;12.30;;;;;;;12.10;100.00;100943.50;4984938;28;20293;-69
2023/05/06 06:03:43;;;;;;;15.30;11.83;;;;;;;12.22;100.00;100941.81;4988682;28;20242;-71
2023/05/06 06:06:11;;;;;;;13.50;10.93;;;;;;;12.33;100.00;100940.19;4982193;28;20238;-69
2023/05/06 06:08:37;;;;;;;13.40;11.37;;;;;;;12.46;100.00;100938.41;4989564;28;20199;-69
2023/05/06 06:11:05;;;;;;;13.90;10.83;;;;;;;12.60;100.00;100942.81;4987268;28;20222;-69
2023/05/06 06:13:32;;;;;;;11.40;10.13;;;;;;;12.73;100.00;100953.53;4989870;28;20213;-68
2023/05/06 06:15:59;;;;;;;13.33;10.63;;;;;;;12.83;100.00;100954.63;4987043;28;20226;-67
2023/05/06 06:18:26;;;;;;;11.10;9.90;;;;;;;12.91;100.00;100946.94;4984538;28;20232;-68
2023/05/06 06:20:52;;;;;;;12.50;10.93;;;;;;;12.97;100.00;100951.03;4979372;28;20218;-68
2023/05/06 06:23:18;;;;;;;13.47;9.90;;;;;;;13.08;100.00;100961.81;4982141;28;20770;-69
2023/05/06 06:25:45;;;;;;;10.87;9.37;;;;;;;13.19;100.00;100959.31;4980503;28;20214;-69
2023/05/06 06:28:11;;;;;;;10.43;9.33;;;;;;;13.27;100.00;100974.81;4986269;28;20288;-68
2023/05/06 06:30:39;;;;;;;10.50;9.43;;;;;;;13.30;100.00;100964.75;4987579;28;20206;-68
2023/05/06 06:33:05;;;;;;;11.20;9.73;;;;;;;13.29;100.00;100967.53;4986590;28;20215;-69
2023/05/06 06:35:32;;;;;;;9.87;8.87;;;;;;;13.29;99.02;100970.22;4987740;28;20204;-67
2023/05/06 06:37:59;;;;;;;10.23;9.23;;;;;;;13.31;98.14;100966.47;4983692;28;20211;-69
2023/05/06 06:40:25;;;;;;;12.23;10.10;;;;;;;13.34;97.95;100965.41;4989475;28;20216;-69
2023/05/06 06:42:51;;;;;;;10.30;9.30;;;;;;;13.40;97.54;100975.69;4985653;28;20219;-69
2023/05/06 06:45:18;;;;;;;11.57;10.00;;;;;;;13.42;97.17;100973.78;4988510;28;20206;-69
2023/05/06 06:47:46;;;;;;;10.30;8.93;;;;;;;13.43;96.10;100975.50;4986777;28;20235;-69
2023/05/06 06:50:13;;;;;;;12.20;9.53;;;;;;;13.45;95.94;100978.88;4988243;28;20203;-69
2023/05/06 06:52:39;;;;;;;10.43;9.37;;;;;;;13.49;95.61;100985.75;4986621;28;20222;-69
2023/05/06 06:55:06;;;;;;;11.67;10.43;;;;;;;13.50;95.14;100988.31;4988694;28;20233;-68
2023/05/06 06:57:33;;;;;;;11.47;10.33;;;;;;;13.50;94.73;100999.00;4984937;28;20227;-69
2023/05/06 06:59:59;;;;;;;12.17;10.83;;;;;;;13.51;94.45;100992.69;4988668;28;20223;-69
2023/05/06 07:02:26;;;;;;;11.77;10.57;;;;;;;13.51;94.56;100994.53;4985722;28;20203;-69
2023/05/06 07:04:53;;;;;;;12.47;11.03;;;;;;;13.52;94.14;100988.22;4988235;28;20204;-69
2023/05/06 07:07:20;;;;;;;13.07;11.67;;;;;;;13.50;93.60;100999.00;4988069;28;20219;-68
2023/05/06 07:09:46;;;;;;;11.73;10.57;;;;;;;13.50;93.59;101001.69;4988761;28;20195;-69
2023/05/06 07:12:13;;;;;;;14.27;11.33;;;;;;;13.51;94.01;101006.09;4986005;28;20692;-68
2023/05/06 07:14:40;;;;;;;11.93;10.33;;;;;;;13.51;93.63;100999.88;4987278;28;20682;-69
2023/05/06 07:17:06;;;;;;;12.80;11.13;;;;;;;13.49;92.96;100999.97;4990175;28;20894;-68
2023/05/06 07:19:33;;;;;;;17.07;9.93;;;;;;;13.50;93.08;101006.19;4986264;28;20223;-68
2023/05/06 07:22:01;;;;;;;12.67;10.53;;;;;;;13.51;92.27;101000.72;4986608;28;20217;-68
2023/05/06 07:24:28;;;;;;;11.47;10.10;;;;;;;13.55;92.70;101001.38;4984857;28;20542;-68
2023/05/06 07:26:54;;;;;;;11.57;9.60;;;;;;;13.58;91.74;101006.53;4988478;28;20230;-68
2023/05/06 07:29:21;;;;;;;10.80;9.70;;;;;;;13.61;91.85;101005.44;4986129;28;20695;-68
2023/05/06 07:31:47;;;;;;;12.20;10.93;;;;;;;13.64;91.46;101011.41;4985772;28;20838;-68
2023/05/06 07:34:14;;;;;;;12.27;10.77;;;;;;;13.70;90.90;101012.81;4983221;28;20528;-68
2023/05/06 07:36:42;;;;;;;11.13;9.90;;;;;;;13.78;90.70;101019.34;4980836;28;20232;-68
2023/05/06 07:39:10;;;;;;;11.10;9.90;;;;;;;13.83;90.39;101022.53;4984656;28;20303;-68
2023/05/06 07:41:36;;;;;;;11.80;10.00;;;;;;;13.86;89.79;101030.38;4985095;28;20708;-68
2023/05/06 07:44:03;;;;;;;11.77;10.30;;;;;;;13.91;89.46;101024.69;4987087;28;20207;-69
2023/05/06 07:46:30;;;;;;;9.57;8.67;;;;;;;13.95;88.72;101020.84;4988568;28;20625;-69
2023/05/06 07:48:56;;;;;;;10.50;9.40;;;;;;;13.99;88.81;101024.13;4983900;28;20212;-68
2023/05/06 07:51:23;;;;;;;13.93;11.47;;;;;;;14.09;88.52;101030.56;4990069;28;20199;-68
2023/05/06 07:53:49;;;;;;;13.23;11.20;;;;;;;14.17;88.22;101028.16;4991731;28;20597;-68
2023/05/06 07:56:17;;;;;;;10.27;9.20;;;;;;;14.21;87.08;101029.66;4992116;28;20259;-69
2023/05/06 07:58:44;;;;;;;9.93;8.93;;;;;;;14.22;85.77;101031.38;4989823;28;20231;-68
2023/05/06 08:01:10;;;;;;;12.07;10.20;;;;;;;14.21;85.48;101026.97;4984093;28;20212;-69
2023/05/06 08:03:37;;;;;;;10.93;9.67;;;;;;;14.25;85.53;101039.19;4987443;28;20213;-70
2023/05/06 08:06:03;;;;;;;13.13;11.77;;;;;;;14.30;85.24;101044.22;4986562;28;21016;-69
2023/05/06 08:08:30;;;;;;;11.97;10.27;;;;;;;14.35;85.05;101042.91;4986085;28;20216;-69
2023/05/06 08:10:58;;;;;;;11.80;10.50;;;;;;;14.41;85.51;101039.81;4992062;28;20211;-69
2023/05/06 08:13:26;;;;;;;9.20;8.20;;;;;;;14.51;85.49;101043.53;4988742;28;20203;-69
2023/05/06 08:15:53;;;;;;;10.47;9.37;;;;;;;14.65;85.75;101047.03;4990332;28;20676;-68
2023/05/06 08:18:20;;;;;;;10.63;9.33;;;;;;;14.76;85.12;101039.88;4990914;28;20203;-69
2023/05/06 08:20:46;;;;;;;11.17;10.17;;;;;;;14.88;85.02;101040.78;4989575;28;20207;-69
2023/05/06 08:23:13;;;;;;;11.80;10.57;;;;;;;15.00;83.68;101039.03;4989741;28;20211;-69
2023/05/06 08:25:39;;;;;;;11.37;10.17;;;;;;;15.07;82.50;101046.47;4990687;28;20206;-68
2023/05/06 08:28:06;;;;;;;11.10;10.00;;;;;;;15.11;81.73;101047.97;4990094;28;20215;-69
2023/05/06 08:30:34;;;;;;;10.37;9.40;;;;;;;15.22;81.73;101047.16;4991092;28;20201;-69
2023/05/06 08:33:01;;;;;;;11.57;10.47;;;;;;;15.35;80.55;101045.25;4990109;28;20232;-69
2023/05/06 08:35:28;;;;;;;10.10;9.10;;;;;;;15.46;79.71;101049.75;4983566;28;20232;-68
2023/05/06 08:37:54;;;;;;;9.43;8.53;;;;;;;15.56;78.69;101040.06;4985833;28;20249;-69
2023/05/06 08:40:23;;;;;;;11.27;8.23;;;;;;;15.69;77.71;101045.34;4988681;28;20225;-67
2023/05/06 08:42:50;;;;;;;10.87;9.73;;;;;;;15.81;77.09;101045.22;4989333;28;20203;-68
2023/05/06 08:45:17;;;;;;;9.60;8.70;;;;;;;15.89;76.07;101042.78;4988220;28;20214;-68
2023/05/06 08:47:46;;;;;;;9.93;8.90;;;;;;;15.96;75.69;101037.75;4988114;28;20238;-68
2023/05/06 08:50:12;;;;;;;9.47;8.47;;;;;;;16.10;75.89;101048.28;4986146;28;20231;-68
2023/05/06 08:52:39;;;;;;;8.07;7.33;;;;;;;16.19;74.95;101044.84;4989164;28;20215;-69
2023/05/06 08:55:07;;;;;;;9.23;8.40;;;;;;;16.25;72.86;101049.75;4990527;28;20212;-69
2023/05/06 08:57:34;;;;;;;9.57;8.60;;;;;;;16.30;73.07;101052.06;4989637;28;20235;-69
2023/05/06 09:00:01;;;;;;;9.67;8.67;;;;;;;16.36;72.76;101050.69;4986327;28;20324;-69
2023/05/06 09:02:28;;;;;;;9.67;8.77;;;;;;;16.41;71.87;101052.03;4984938;28;20215;-69
2023/05/06 09:04:56;;;;;;;9.57;8.67;;;;;;;16.42;72.13;101053.75;4987333;28;20206;-68
2023/05/06 09:07:24;;;;;;;10.07;9.17;;;;;;;16.48;72.50;101049.72;4988577;28;20310;-68
2023/05/06 09:09:51;;;;;;;9.50;8.60;;;;;;;16.51;72.26;101047.59;4983416;28;20509;-69
2023/05/06 09:12:17;;;;;;;10.17;9.17;;;;;;;16.57;72.04;101047.13;4981458;28;20209;-69
2023/05/06 09:14:44;;;;;;;9.73;8.17;;;;;;;16.67;71.52;101048.09;4979877;28;20267;-68
2023/05/06 09:17:22;;;;;;;8.37;7.57;;;;;;;16.76;70.25;101051.88;4982111;28;20239;-69
2023/05/06 09:19:49;;;;;;;8.97;7.80;;;;;;;16.83;69.39;101055.75;4983583;28;20258;-69
2023/05/06 09:22:17;;;;;;;8.77;7.80;;;;;;;16.88;69.38;101052.66;4983982;28;20209;-68
2023/05/06 09:24:44;;;;;;;8.30;7.50;;;;;;;16.95;69.59;101056.56;4983136;28;20218;-69
2023/05/06 09:27:11;;;;;;;9.20;8.40;;;;;;;17.00;69.68;101051.66;4986021;28;20229;-68
2023/05/06 09:29:38;;;;;;;9.83;8.87;;;;;;;17.04;69.77;101049.53;4987130;28;20204;-68
2023/05/06 09:32:07;;;;;;;9.30;7.50;;;;;;;17.06;69.91;101045.75;4985719;28;20407;-68
2023/05/06 09:34:34;;;;;;;9.10;8.23;;;;;;;17.10;69.38;101049.03;4984874;28;20220;-69
2023/05/06 09:37:00;;;;;;;8.27;7.47;;;;;;;17.12;68.65;101047.06;4980484;28;20233;-68
2023/05/06 09:39:28;;;;;;;8.20;7.50;;;;;;;17.12;68.09;101045.25;4985913;28;20221;-69
2023/05/06 09:41:55;;;;;;;7.60;6.77;;;;;;;17.12;67.16;101045.25;4984058;28;20719;-69
2023/05/06 09:44:22;;;;;;;8.10;7.30;;;;;;;17.20;68.05;101055.34;4985161;28;20236;-69
2023/05/06 09:46:48;;;;;;;7.83;7.13;;;;;;;17.32;67.90;101052.47;4983414;28;20745;-68
2023/05/06 09:49:15;;;;;;;9.40;8.43;;;;;;;17.43;67.74;101043.47;4984380;28;20228;-68
2023/05/06 09:51:46;;;;;;;9.03;8.20;;;;;;;17.51;67.22;101051.75;4985298;28;20213;-68
2023/05/06 09:54:13;;;;;;;7.87;7.10;;;;;;;17.55;66.67;101047.81;4984511;28;20214;-69
2023/05/06 09:56:43;;;;;;;8.30;7.50;;;;;;;17.62;66.73;101050.81;4982204;28;20249;-68
2023/05/06 09:59:10;;;;;;;8.27;7.37;;;;;;;17.71;66.94;101057.31;4980534;28;20234;-68
2023/05/06 10:01:38;;;;;;;7.30;6.60;;;;;;;17.79;66.24;101054.78;4988702;28;20210;-68
2023/05/06 10:04:08;;;;;;;7.87;7.17;;;;;;;17.85;65.25;101057.81;4976941;28;20834;-70
2023/05/06 10:06:38;;;;;;;8.20;7.40;;;;;;;17.88;64.87;101054.84;4988226;28;20246;-69
2023/05/06 10:09:06;;;;;;;7.97;6.93;;;;;;;17.91;64.95;101054.59;4984202;28;20305;-69
2023/05/06 10:11:33;;;;;;;7.90;7.10;;;;;;;17.93;64.63;101057.97;4988066;28;20237;-68
2023/05/06 10:14:02;;;;;;;7.23;6.60;;;;;;;17.86;64.77;101056.81;4987882;28;20217;-69
2023/05/06 10:16:29;;;;;;;10.00;7.57;;;;;;;17.84;65.29;101049.84;4986591;28;20257;-68
2023/05/06 10:18:55;;;;;;;7.60;6.80;;;;;;;17.86;65.95;101051.44;4985362;28;20214;-68
2023/05/06 10:21:27;;;;;;;7.13;6.40;;;;;;;17.94;65.89;101046.19;4984003;28;20199;-68
2023/05/06 10:24:01;;;;;;;6.53;5.93;;;;;;;17.97;65.33;101048.63;4980761;28;20217;-68
2023/05/06 10:26:29;;;;;;;7.17;6.47;;;;;;;18.01;65.07;101043.84;4982458;28;20255;-68
2023/05/06 10:28:56;;;;;;;6.57;5.23;;;;;;;18.07;65.11;101040.59;4974440;28;20216;-68
2023/05/06 10:31:24;;;;;;;7.13;5.77;;;;;;;18.17;64.87;101044.19;4978929;28;20586;-68
2023/05/06 10:33:54;;;;;;;6.53;5.93;;;;;;;18.26;64.49;101031.75;4987122;28;20207;-68
2023/05/06 10:36:22;;;;;;;7.07;6.37;;;;;;;18.35;63.77;101034.44;4984334;28;20767;-68
2023/05/06 10:38:53;;;;;;;6.10;5.50;;;;;;;18.46;63.67;101033.47;4985962;28;20731;-67
2023/05/06 10:41:21;;;;;;;8.37;6.20;;;;;;;18.54;62.80;101030.94;4987847;28;20258;-68
2023/05/06 10:43:55;;;;;;;6.97;6.27;;;;;;;18.65;62.57;101029.97;4987355;28;20680;-68
2023/05/06 10:46:22;;;;;;;7.17;5.87;;;;;;;18.68;60.03;101037.81;4992920;28;20237;-68
2023/05/06 10:49:19;;;;;;;5.97;5.30;;;;;;;18.63;58.91;101029.31;4997009;28;20651;-68
2023/05/06 10:51:50;;;;;;;7.00;5.87;;;;;;;18.65;59.59;101028.13;4982100;28;20211;-68
2023/05/06 10:54:23;;;;;;;7.27;6.47;;;;;;;18.79;61.40;101028.75;4987368;28;20210;-68
2023/05/06 10:57:16;;;;;;;7.33;6.13;;;;;;;18.98;61.88;101036.84;4997930;28;20226;-68
2023/05/06 10:59:47;;;;;;;8.30;6.60;;;;;;;19.09;60.55;101031.31;4949739;28;20229;-68
2023/05/06 11:02:14;;;;;;;6.23;4.90;;;;;;;19.15;59.55;101041.53;4984817;28;20306;-68
2023/05/06 11:04:42;;;;;;;6.13;5.53;;;;;;;19.24;59.33;101035.25;4994604;28;20242;-68
2023/05/06 11:07:10;;;;;;;6.27;5.67;;;;;;;19.27;57.24;101034.97;4992423;28;20227;-68
2023/05/06 11:09:55;;;;;;;6.80;6.10;;;;;;;19.27;57.41;101034.97;4992367;28;20228;-68
2023/05/06 11:12:22;;;;;;;5.00;4.50;;;;;;;19.37;57.79;101029.56;4988957;28;20863;-68